createdAt,value
2023-02-11T00:03:01.295Z,59.73
2023-02-11T00:05:27.649Z,59.17
2023-02-11T00:07:53.960Z,58.41
2023-02-11T00:10:20.255Z,58.34
2023-02-11T00:12:46.548Z,58.49
2023-02-11T00:15:12.851Z,58.43
2023-02-11T00:17:39.200Z,57.78
2023-02-11T00:20:08.082Z,58.25
2023-02-11T00:22:34.556Z,57.45
2023-02-11T00:25:00.888Z,57.26
2023-02-11T00:27:27.177Z,57.10
2023-02-11T00:29:53.470Z,57.11
2023-02-11T00:32:19.784Z,58.61
2023-02-11T00:34:46.065Z,58.18
2023-02-11T00:37:12.360Z,57.41
2023-02-11T00:39:38.692Z,58.02
2023-02-11T00:42:05.002Z,57.92
2023-02-11T00:44:31.293Z,56.47
2023-02-11T00:46:57.729Z,56.91
2023-02-11T00:49:24.022Z,55.70
2023-02-11T00:51:50.302Z,55.67
2023-02-11T00:54:16.614Z,56.54
2023-02-11T00:56:42.944Z,56.14
2023-02-11T00:59:09.286Z,55.36
2023-02-11T01:01:35.707Z,57.11
2023-02-11T01:04:10.888Z,58.38
2023-02-11T01:06:37.198Z,57.67
2023-02-11T01:09:03.497Z,57.75
2023-02-11T01:11:29.783Z,58.94
2023-02-11T01:13:56.103Z,58.41
2023-02-11T01:16:22.498Z,58.13
2023-02-11T01:18:48.818Z,57.52
2023-02-11T01:21:15.185Z,57.99
2023-02-11T01:23:41.488Z,57.16
2023-02-11T01:26:07.795Z,57.27
2023-02-11T01:28:34.196Z,57.74
2023-02-11T01:31:00.575Z,57.54
2023-02-11T01:33:26.920Z,58.95
2023-02-11T01:35:53.534Z,58.93
2023-02-11T01:38:19.898Z,58.26
2023-02-11T01:40:46.196Z,58.42
2023-02-11T01:43:12.503Z,58.63
2023-02-11T01:45:38.803Z,59.59
2023-02-11T01:48:05.084Z,59.42
2023-02-11T01:50:31.424Z,59.11
2023-02-11T01:52:57.785Z,59.15
2023-02-11T01:55:24.079Z,59.78
2023-02-11T01:57:50.403Z,58.57
2023-02-11T02:00:16.732Z,60.38
2023-02-11T02:02:43.023Z,60.37
2023-02-11T02:05:09.335Z,61.01
2023-02-11T02:07:35.637Z,59.19
2023-02-11T02:10:01.936Z,59.08
2023-02-11T02:12:28.245Z,58.87
2023-02-11T02:14:54.534Z,58.93
2023-02-11T02:17:20.831Z,59.56
2023-02-11T02:19:47.154Z,60.23
2023-02-11T02:22:13.450Z,59.78
2023-02-11T02:24:39.747Z,59.17
2023-02-11T02:27:06.102Z,59.14
2023-02-11T02:29:32.384Z,58.89
2023-02-11T02:31:58.681Z,58.45
2023-02-11T02:34:24.974Z,57.90
2023-02-11T02:36:51.271Z,57.29
2023-02-11T02:39:17.571Z,58.25
2023-02-11T02:41:43.883Z,58.30
2023-02-11T02:44:10.180Z,58.18
2023-02-11T02:46:36.539Z,58.94
2023-02-11T02:49:02.901Z,59.01
2023-02-11T02:51:29.190Z,58.10
2023-02-11T02:53:55.492Z,57.79
2023-02-11T02:56:21.786Z,58.59
2023-02-11T02:58:48.072Z,59.03
2023-02-11T03:01:14.422Z,57.95
2023-02-11T03:03:40.894Z,59.36
2023-02-11T03:06:07.247Z,59.85
2023-02-11T03:08:33.599Z,60.06
2023-02-11T03:10:59.921Z,60.51
2023-02-11T03:13:26.209Z,58.96
2023-02-11T03:15:52.829Z,59.16
2023-02-11T03:18:19.294Z,59.31
2023-02-11T03:20:45.571Z,59.16
2023-02-11T03:23:11.851Z,60.74
2023-02-11T03:25:38.161Z,60.72
2023-02-11T03:28:04.501Z,62.10
2023-02-11T03:30:30.827Z,61.70
2023-02-11T03:32:57.176Z,61.25
2023-02-11T03:35:23.468Z,60.43
2023-02-11T03:37:55.879Z,60.88
2023-02-11T03:40:22.236Z,60.15
2023-02-11T03:42:48.530Z,61.17
2023-02-11T03:45:14.824Z,60.84
2023-02-11T03:47:41.133Z,61.32
2023-02-11T03:50:07.429Z,61.77
2023-02-11T03:52:33.725Z,61.22
2023-02-11T03:55:00.051Z,60.65
2023-02-11T03:57:26.359Z,60.11
2023-02-11T03:59:52.664Z,60.76
2023-02-11T04:02:18.975Z,60.46
2023-02-11T04:04:45.273Z,60.70
2023-02-11T04:07:11.554Z,62.04
2023-02-11T04:09:37.861Z,62.51
2023-02-11T04:12:04.151Z,61.85
2023-02-11T04:14:30.448Z,61.54
2023-02-11T04:16:56.857Z,61.75
2023-02-11T04:19:23.165Z,61.31
2023-02-11T04:21:49.459Z,62.00
2023-02-11T04:24:15.860Z,61.41
2023-02-11T04:26:42.165Z,60.85
2023-02-11T04:29:08.456Z,62.29
2023-02-11T04:31:34.800Z,61.59
2023-02-11T04:34:01.113Z,61.64
2023-02-11T04:36:27.471Z,61.93
2023-02-11T04:38:53.940Z,62.11
2023-02-11T04:41:20.240Z,63.21
2023-02-11T04:43:46.549Z,62.59
2023-02-11T04:46:12.962Z,61.86
2023-02-11T04:48:39.291Z,61.89
2023-02-11T04:51:05.576Z,61.54
2023-02-11T04:53:31.883Z,62.89
2023-02-11T04:55:58.173Z,62.54
2023-02-11T04:58:24.512Z,61.58
2023-02-11T05:00:50.873Z,63.39
2023-02-11T05:03:17.181Z,62.30
2023-02-11T05:05:43.489Z,61.91
2023-02-11T05:08:09.803Z,62.01
2023-02-11T05:10:36.109Z,61.62
2023-02-11T05:13:02.421Z,62.29
2023-02-11T05:15:28.727Z,63.73
2023-02-11T05:17:55.017Z,63.01
2023-02-11T05:20:21.301Z,62.36
2023-02-11T05:22:47.605Z,63.38
2023-02-11T05:25:13.904Z,62.56
2023-02-11T05:27:40.192Z,61.93
2023-02-11T05:30:06.503Z,61.56
2023-02-11T05:32:32.843Z,62.86
2023-02-11T05:34:59.135Z,63.83
2023-02-11T05:37:25.549Z,62.40
2023-02-11T05:39:51.885Z,64.09
2023-02-11T05:42:18.185Z,63.40
2023-02-11T05:44:44.518Z,63.39
2023-02-11T05:47:10.799Z,63.21
2023-02-11T05:49:37.089Z,63.10
2023-02-11T05:52:03.403Z,63.97
2023-02-11T05:54:29.690Z,62.54
2023-02-11T05:56:55.973Z,63.34
2023-02-11T05:59:22.278Z,63.38
2023-02-11T06:01:48.570Z,63.11
2023-02-11T06:04:14.858Z,63.49
2023-02-11T06:06:41.167Z,63.94
2023-02-11T06:09:07.492Z,64.17
2023-02-11T06:11:33.792Z,63.50
2023-02-11T06:14:00.143Z,62.37
2023-02-11T06:16:26.515Z,62.09
2023-02-11T06:18:52.847Z,62.87
2023-02-11T06:21:19.143Z,63.10
2023-02-11T06:23:45.439Z,63.35
2023-02-11T06:26:11.752Z,62.09
2023-02-11T06:28:40.768Z,62.44
2023-02-11T06:31:08.331Z,62.84
2023-02-11T06:33:34.679Z,62.80
2023-02-11T06:36:01.004Z,62.77
2023-02-11T06:38:27.292Z,63.00
2023-02-11T06:40:53.596Z,62.37
2023-02-11T06:43:19.916Z,62.19
2023-02-11T06:45:46.204Z,62.53
2023-02-11T06:48:12.488Z,62.61
2023-02-11T06:50:38.825Z,62.51
2023-02-11T06:53:05.108Z,62.93
2023-02-11T06:55:31.405Z,62.65
2023-02-11T06:57:57.720Z,62.53
2023-02-11T07:00:24.018Z,62.09
2023-02-11T07:02:50.314Z,61.84
2023-02-11T07:05:16.643Z,64.63
2023-02-11T07:07:42.932Z,62.70
2023-02-11T07:10:09.209Z,62.28
2023-02-11T07:12:35.529Z,62.30
2023-02-11T07:15:01.838Z,62.13
2023-02-11T07:17:28.132Z,61.70
2023-02-11T07:19:54.446Z,61.35
2023-02-11T07:22:20.761Z,62.35
2023-02-11T07:24:47.049Z,62.34
2023-02-11T07:27:13.375Z,62.78
2023-02-11T07:29:39.662Z,63.00
2023-02-11T07:32:06.017Z,62.39
2023-02-11T07:34:32.444Z,62.44
2023-02-11T07:36:58.724Z,63.83
2023-02-11T07:39:25.022Z,64.47
2023-02-11T07:41:51.335Z,63.47
2023-02-11T07:44:17.623Z,63.72
2023-02-11T07:46:43.948Z,64.85
2023-02-11T07:49:10.306Z,65.21
2023-02-11T07:51:37.717Z,66.38
2023-02-11T07:54:04.014Z,67.93
2023-02-11T07:56:30.361Z,69.20
2023-02-11T07:58:56.649Z,69.52
2023-02-11T08:01:23.001Z,69.82
2023-02-11T08:03:49.413Z,71.14
2023-02-11T08:06:15.719Z,70.63
2023-02-11T08:08:42.151Z,71.67
2023-02-11T08:11:08.461Z,69.81
2023-02-11T08:13:34.745Z,71.52
2023-02-11T08:16:01.120Z,71.13
2023-02-11T08:18:27.470Z,69.54
2023-02-11T08:20:53.762Z,68.64
2023-02-11T08:23:20.232Z,67.66
2023-02-11T08:25:46.554Z,66.10
2023-02-11T08:28:12.918Z,64.45
2023-02-11T08:30:39.363Z,62.87
2023-02-11T08:33:07.555Z,61.67
2023-02-11T08:35:33.855Z,59.85
2023-02-11T08:38:00.153Z,57.36
2023-02-11T08:40:26.464Z,57.13
2023-02-11T08:42:52.750Z,56.54
2023-02-11T08:45:19.065Z,58.63
2023-02-11T08:47:45.361Z,59.02
2023-02-11T08:50:11.658Z,57.44
2023-02-11T08:52:37.957Z,57.64
2023-02-11T08:55:04.257Z,57.71
2023-02-11T08:57:30.550Z,56.58
2023-02-11T08:59:56.837Z,58.49
2023-02-11T09:02:23.210Z,59.48
2023-02-11T09:04:49.532Z,58.88
2023-02-11T09:07:15.837Z,58.79
2023-02-11T09:09:42.140Z,58.74
2023-02-11T09:12:08.440Z,58.89
2023-02-11T09:14:34.724Z,57.84
2023-02-11T09:17:01.068Z,58.26
2023-02-11T09:19:27.405Z,59.93
2023-02-11T09:21:53.699Z,59.92
2023-02-11T09:24:20.013Z,59.13
2023-02-11T09:26:46.308Z,60.29
2023-02-11T09:29:12.614Z,63.68
2023-02-11T09:31:39.067Z,61.57
2023-02-11T09:34:05.445Z,60.32
2023-02-11T09:36:31.718Z,57.27
2023-02-11T09:38:58.046Z,58.33
2023-02-11T09:41:24.378Z,58.30
2023-02-11T09:43:50.669Z,58.98
2023-02-11T09:46:17.068Z,58.86
2023-02-11T09:48:43.377Z,55.83
2023-02-11T09:51:09.666Z,56.15
2023-02-11T09:53:35.973Z,55.60
2023-02-11T09:56:02.306Z,54.55
2023-02-11T09:58:28.607Z,54.42
2023-02-11T10:00:54.924Z,53.17
2023-02-11T10:03:21.226Z,54.64
2023-02-11T10:05:47.534Z,52.20
2023-02-11T10:08:16.743Z,53.32
2023-02-11T10:10:43.243Z,53.67
2023-02-11T10:13:09.546Z,51.06
2023-02-11T10:15:35.907Z,52.99
2023-02-11T10:18:02.233Z,52.77
2023-02-11T10:20:28.535Z,52.42
2023-02-11T10:22:54.847Z,52.53
2023-02-11T10:25:21.150Z,50.44
2023-02-11T10:27:47.448Z,52.61
2023-02-11T10:30:13.764Z,52.73
2023-02-11T10:32:40.075Z,51.82
2023-02-11T10:35:06.359Z,51.81
2023-02-11T10:37:32.670Z,51.63
2023-02-11T10:39:58.950Z,50.30
2023-02-11T10:42:25.241Z,50.54
2023-02-11T10:44:51.549Z,49.38
2023-02-11T10:47:17.859Z,51.72
2023-02-11T10:49:44.166Z,51.30
2023-02-11T10:52:10.483Z,49.03
2023-02-11T10:54:36.769Z,52.15
2023-02-11T10:57:03.069Z,51.63
2023-02-11T10:59:29.500Z,49.51
2023-02-11T11:01:55.986Z,49.29
2023-02-11T11:04:22.300Z,47.70
2023-02-11T11:06:48.679Z,46.67
2023-02-11T11:09:14.973Z,47.20
2023-02-11T11:11:41.253Z,47.62
2023-02-11T11:14:07.580Z,45.62
2023-02-11T11:16:33.878Z,47.61
2023-02-11T11:19:00.180Z,45.09
2023-02-11T11:21:26.491Z,44.37
2023-02-11T11:23:52.779Z,44.55
2023-02-11T11:26:19.060Z,40.70
2023-02-11T11:28:45.373Z,43.45
2023-02-11T11:31:11.741Z,43.81
2023-02-11T11:33:38.104Z,38.99
2023-02-11T11:36:04.411Z,42.97
2023-02-11T11:38:30.696Z,41.53
2023-02-11T11:40:56.987Z,43.16
2023-02-11T11:43:23.519Z,43.79
2023-02-11T11:45:49.806Z,45.26
2023-02-11T11:48:16.097Z,43.63
2023-02-11T11:50:42.398Z,43.70
2023-02-11T11:53:08.699Z,43.34
2023-02-11T11:55:34.999Z,44.49
2023-02-11T11:58:01.304Z,47.57
2023-02-11T12:00:27.601Z,47.44
2023-02-11T12:02:53.975Z,47.50
2023-02-11T12:05:20.378Z,45.70
2023-02-11T12:07:46.665Z,48.39
2023-02-11T12:10:12.965Z,50.74
2023-02-11T12:12:39.284Z,46.63
2023-02-11T12:15:05.603Z,47.66
2023-02-11T12:17:31.894Z,47.00
2023-02-11T12:19:58.243Z,47.78
2023-02-11T12:22:24.531Z,47.50
2023-02-11T12:24:50.824Z,44.26
2023-02-11T12:27:17.128Z,45.84
2023-02-11T12:29:43.427Z,43.73
2023-02-11T12:32:09.766Z,44.40
2023-02-11T12:34:36.114Z,45.08
2023-02-11T12:37:02.992Z,43.36
2023-02-11T12:39:29.384Z,43.43
2023-02-11T12:41:55.729Z,43.00
2023-02-11T12:44:22.021Z,43.55
2023-02-11T12:46:48.319Z,43.52
2023-02-11T12:49:14.633Z,43.27
2023-02-11T12:51:40.936Z,43.40
2023-02-11T12:54:07.231Z,44.32
2023-02-11T12:56:33.551Z,45.84
2023-02-11T12:58:59.844Z,44.52
2023-02-11T13:01:26.226Z,43.28
2023-02-11T13:03:52.615Z,40.73
2023-02-11T13:06:18.901Z,44.77
2023-02-11T13:08:45.180Z,46.25
2023-02-11T13:11:13.925Z,46.72
2023-02-11T13:13:40.754Z,45.16
2023-02-11T13:16:07.065Z,43.43
2023-02-11T13:18:33.367Z,43.60
2023-02-11T13:20:59.698Z,44.76
2023-02-11T13:23:26.028Z,46.50
2023-02-11T13:25:52.373Z,47.40
2023-02-11T13:28:18.700Z,44.85
2023-02-11T13:30:45.151Z,44.26
2023-02-11T13:33:11.514Z,41.30
2023-02-11T13:35:37.807Z,41.05
2023-02-11T13:38:04.104Z,37.49
2023-02-11T13:40:30.407Z,42.08
2023-02-11T13:42:56.686Z,45.01
2023-02-11T13:45:22.969Z,44.03
2023-02-11T13:47:52.386Z,42.06
2023-02-11T13:50:18.967Z,49.24
2023-02-11T13:52:45.252Z,48.17
2023-02-11T13:55:11.549Z,48.86
2023-02-11T13:57:37.836Z,48.12
2023-02-11T14:00:04.124Z,46.58
2023-02-11T14:02:30.454Z,46.44
2023-02-11T14:04:56.801Z,43.63
2023-02-11T14:07:23.091Z,45.61
2023-02-11T14:09:49.406Z,44.17
2023-02-11T14:12:15.722Z,44.54
2023-02-11T14:14:42.021Z,45.32
2023-02-11T14:17:08.375Z,41.33
2023-02-11T14:19:34.685Z,41.66
2023-02-11T14:22:00.988Z,41.34
2023-02-11T14:24:27.322Z,41.37
2023-02-11T14:26:53.625Z,41.31
2023-02-11T14:29:19.922Z,39.58
2023-02-11T14:31:46.392Z,39.21
2023-02-11T14:34:12.712Z,39.47
2023-02-11T14:36:39.005Z,37.40
2023-02-11T14:39:05.296Z,38.50
2023-02-11T14:41:31.587Z,37.59
2023-02-11T14:43:57.876Z,38.29
2023-02-11T14:46:24.256Z,37.27
2023-02-11T14:48:50.602Z,38.62
2023-02-11T14:51:16.901Z,40.39
2023-02-11T14:53:43.227Z,39.56
2023-02-11T14:56:09.575Z,38.83
2023-02-11T14:58:35.869Z,39.95
2023-02-11T15:01:02.288Z,40.56
2023-02-11T15:03:28.579Z,40.98
2023-02-11T15:05:54.868Z,40.37
2023-02-11T15:08:21.181Z,40.84
2023-02-11T15:10:47.480Z,40.33
2023-02-11T15:13:13.774Z,40.18
2023-02-11T15:15:40.108Z,41.89
2023-02-11T15:18:06.420Z,40.58
2023-02-11T15:20:32.717Z,40.96
2023-02-11T15:22:59.020Z,40.68
2023-02-11T15:25:25.306Z,40.31
2023-02-11T15:27:51.589Z,39.18
2023-02-11T15:30:17.905Z,42.00
2023-02-11T15:32:44.212Z,41.38
2023-02-11T15:35:10.508Z,40.86
2023-02-11T15:37:36.844Z,40.13
2023-02-11T15:40:03.135Z,40.46
2023-02-11T15:42:30.405Z,40.94
2023-02-11T15:44:58.907Z,40.95
2023-02-11T15:47:25.208Z,40.93
2023-02-11T15:49:51.495Z,40.97
2023-02-11T15:52:17.804Z,40.32
2023-02-11T15:54:44.102Z,40.42
2023-02-11T15:57:10.404Z,40.70
2023-02-11T15:59:36.715Z,42.28
2023-02-11T16:02:03.051Z,44.11
2023-02-11T16:04:29.436Z,43.02
2023-02-11T16:06:55.764Z,44.00
2023-02-11T16:09:22.067Z,45.69
2023-02-11T16:11:48.380Z,45.38
2023-02-11T16:14:14.689Z,44.53
2023-02-11T16:16:40.982Z,45.34
2023-02-11T16:19:07.314Z,45.45
2023-02-11T16:21:33.674Z,44.69
2023-02-11T16:23:59.964Z,44.51
2023-02-11T16:26:26.256Z,45.03
2023-02-11T16:28:52.566Z,46.17
2023-02-11T16:31:19.008Z,46.80
2023-02-11T16:33:45.362Z,47.93
2023-02-11T16:36:11.666Z,47.70
2023-02-11T16:38:37.953Z,48.52
2023-02-11T16:41:04.272Z,48.50
2023-02-11T16:43:30.615Z,47.91
2023-02-11T16:45:56.963Z,47.79
2023-02-11T16:48:23.248Z,47.05
2023-02-11T16:50:52.212Z,47.00
2023-02-11T16:53:19.622Z,49.01
2023-02-11T16:55:45.921Z,47.38
2023-02-11T16:58:12.230Z,47.50
2023-02-11T17:00:38.536Z,49.97
2023-02-11T17:03:04.862Z,50.81
2023-02-11T17:05:31.197Z,51.11
2023-02-11T17:07:57.522Z,49.03
2023-02-11T17:10:23.834Z,48.13
2023-02-11T17:12:50.149Z,47.99
2023-02-11T17:15:16.450Z,47.45
2023-02-11T17:17:42.753Z,46.91
2023-02-11T17:20:09.047Z,46.46
2023-02-11T17:22:35.343Z,47.22
2023-02-11T17:25:01.634Z,47.26
2023-02-11T17:27:27.958Z,49.12
2023-02-11T17:29:54.246Z,50.73
2023-02-11T17:32:20.609Z,49.85
2023-02-11T17:34:46.932Z,49.27
2023-02-11T17:37:13.220Z,47.86
2023-02-11T17:39:39.529Z,47.31
2023-02-11T17:42:05.891Z,47.71
2023-02-11T17:44:32.186Z,48.99
2023-02-11T17:46:58.481Z,49.78
2023-02-11T17:49:24.827Z,49.12
2023-02-11T17:51:51.106Z,48.94
2023-02-11T17:54:17.410Z,47.37
2023-02-11T17:56:43.751Z,47.13
2023-02-11T17:59:10.062Z,46.67
2023-02-11T18:01:36.352Z,45.83
2023-02-11T18:04:02.666Z,45.76
2023-02-11T18:06:28.986Z,46.49
2023-02-11T18:08:57.847Z,45.49
2023-02-11T18:11:24.307Z,46.32
2023-02-11T18:13:50.611Z,46.71
2023-02-11T18:16:16.989Z,48.60
2023-02-11T18:18:43.348Z,47.20
2023-02-11T18:21:09.645Z,46.79
2023-02-11T18:23:35.944Z,46.01
2023-02-11T18:26:02.265Z,46.35
2023-02-11T18:28:28.605Z,46.44
2023-02-11T18:30:55.001Z,46.50
2023-02-11T18:33:21.393Z,46.46
2023-02-11T18:35:47.672Z,46.17
2023-02-11T18:38:13.965Z,47.05
2023-02-11T18:40:40.311Z,46.86
2023-02-11T18:43:06.721Z,46.97
2023-02-11T18:45:33.034Z,46.90
2023-02-11T18:47:59.358Z,46.28
2023-02-11T18:50:25.646Z,46.99
2023-02-11T18:52:51.932Z,46.76
2023-02-11T18:55:18.282Z,45.73
2023-02-11T18:57:44.594Z,45.72
2023-02-11T19:00:10.901Z,46.74
2023-02-11T19:02:37.244Z,47.53
2023-02-11T19:05:03.543Z,47.11
2023-02-11T19:07:29.835Z,49.82
2023-02-11T19:09:56.152Z,48.31
2023-02-11T19:12:22.453Z,47.47
2023-02-11T19:14:48.754Z,46.42
2023-02-11T19:17:15.065Z,47.40
2023-02-11T19:19:41.364Z,46.66
2023-02-11T19:22:10.421Z,47.05
2023-02-11T19:24:37.042Z,46.49
2023-02-11T19:27:03.334Z,47.45
2023-02-11T19:29:29.634Z,47.01
2023-02-11T19:31:56.090Z,47.04
2023-02-11T19:34:22.468Z,46.78
2023-02-11T19:36:48.793Z,47.49
2023-02-11T19:39:15.128Z,47.00
2023-02-11T19:41:41.481Z,46.36
2023-02-11T19:44:07.791Z,45.91
2023-02-11T19:46:34.187Z,46.52
2023-02-11T19:49:00.541Z,46.83
2023-02-11T19:51:26.848Z,47.48
2023-02-11T19:53:53.164Z,45.75
2023-02-11T19:56:20.906Z,45.41
2023-02-11T19:58:47.338Z,45.91
2023-02-11T20:01:13.761Z,47.23
2023-02-11T20:03:42.429Z,47.46
2023-02-11T20:06:08.929Z,47.83
2023-02-11T20:08:35.285Z,48.15
2023-02-11T20:11:01.577Z,46.73
2023-02-11T20:13:27.879Z,46.58
2023-02-11T20:15:54.633Z,48.66
2023-02-11T20:18:21.365Z,47.05
2023-02-11T20:20:47.665Z,46.44
2023-02-11T20:23:13.997Z,46.01
2023-02-11T20:25:40.291Z,46.19
2023-02-11T20:28:06.609Z,45.00
2023-02-11T20:30:32.935Z,45.17
2023-02-11T20:32:59.228Z,45.48
2023-02-11T20:35:25.520Z,46.49
2023-02-11T20:37:51.842Z,46.04
2023-02-11T20:40:18.180Z,45.83
2023-02-11T20:42:44.470Z,47.13
2023-02-11T20:45:10.796Z,45.78
2023-02-11T20:47:37.099Z,44.77
2023-02-11T20:50:03.408Z,45.09
2023-02-11T20:52:29.721Z,45.47
2023-02-11T20:54:56.001Z,46.73
2023-02-11T20:57:22.295Z,47.46
2023-02-11T20:59:50.921Z,46.56
2023-02-11T21:02:17.224Z,46.28
2023-02-11T21:04:43.521Z,46.79
2023-02-11T21:07:09.881Z,45.89
2023-02-11T21:09:36.177Z,46.36
2023-02-11T21:12:02.522Z,48.69
2023-02-11T21:14:28.847Z,49.03
2023-02-11T21:16:55.136Z,49.74
2023-02-11T21:19:21.490Z,48.24
2023-02-11T21:21:47.814Z,47.45
2023-02-11T21:24:14.107Z,49.26
2023-02-11T21:26:40.410Z,49.62
2023-02-11T21:29:06.707Z,51.11
2023-02-11T21:31:33.182Z,52.29
2023-02-11T21:33:59.599Z,53.90
2023-02-11T21:36:25.941Z,54.24
2023-02-11T21:38:52.225Z,54.23
2023-02-11T21:41:18.537Z,53.71
2023-02-11T21:43:44.843Z,53.10
2023-02-11T21:46:11.205Z,52.68
2023-02-11T21:48:37.548Z,52.30
2023-02-11T21:51:03.859Z,53.25
2023-02-11T21:53:30.156Z,52.85
2023-02-11T21:55:56.686Z,52.30
2023-02-11T21:58:23.086Z,52.86
2023-02-11T22:00:49.415Z,54.45
2023-02-11T22:03:15.717Z,53.14
2023-02-11T22:05:42.018Z,53.23
2023-02-11T22:08:08.306Z,53.64
2023-02-11T22:10:34.601Z,52.94
2023-02-11T22:13:00.953Z,53.92
2023-02-11T22:15:27.266Z,53.90
2023-02-11T22:17:53.558Z,53.93
2023-02-11T22:20:19.873Z,53.35
2023-02-11T22:22:46.173Z,54.70
2023-02-11T22:25:12.465Z,54.16
2023-02-11T22:27:38.969Z,54.48
2023-02-11T22:30:05.259Z,54.00
2023-02-11T22:32:31.534Z,55.71
2023-02-11T22:34:57.841Z,54.31
2023-02-11T22:37:24.142Z,54.48
2023-02-11T22:39:50.451Z,54.86
2023-02-11T22:42:16.753Z,55.95
2023-02-11T22:44:43.044Z,55.39
2023-02-11T22:47:09.326Z,55.54
2023-02-11T22:49:35.645Z,55.31
2023-02-11T22:52:01.955Z,55.80
2023-02-11T22:54:28.253Z,54.75
2023-02-11T22:56:54.572Z,55.14
2023-02-11T22:59:20.872Z,55.42
2023-02-11T23:01:47.251Z,55.47
2023-02-11T23:04:13.593Z,55.50
2023-02-11T23:06:39.889Z,55.15
2023-02-11T23:09:06.180Z,54.80
2023-02-11T23:11:32.493Z,54.03
2023-02-11T23:13:58.799Z,53.82
2023-02-11T23:16:25.151Z,54.05
2023-02-11T23:18:51.523Z,54.50
2023-02-11T23:21:17.842Z,55.29
2023-02-11T23:23:44.133Z,55.12
2023-02-11T23:26:10.450Z,54.71
2023-02-11T23:28:36.796Z,55.44
2023-02-11T23:31:03.294Z,55.36
2023-02-11T23:33:29.619Z,55.45
2023-02-11T23:35:56.232Z,54.97
2023-02-11T23:38:22.683Z,55.33
2023-02-11T23:40:49.016Z,55.21
2023-02-11T23:43:15.311Z,55.84
2023-02-11T23:45:41.641Z,55.52
2023-02-11T23:48:07.962Z,54.87
2023-02-11T23:50:34.257Z,55.83
2023-02-11T23:53:00.545Z,56.64
2023-02-11T23:55:26.860Z,56.87
2023-02-11T23:57:53.154Z,56.07
